Time;durP1;ratioP1;P1;durP2;ratioP2;P2;SDS_P1;SDS_P2;PMS_P1;PMS_P2;Temp;Humidity;BMP_temperature;BMP_pressure;BME280_temperature;BME280_humidity;BME280_pressure;Samples;Min_cycle;Max_cycle;Signal;HPM_P1;HPM_P2
2022/03/16 00:00:22;;;;;;;35.20;16.30;;;;;;;0.76;64.07;94403.91;5090393;28;20120;-41
2022/03/16 00:02:48;;;;;;;39.85;23.95;;;;;;;0.48;65.65;94401.78;5090586;28;20028;-41
2022/03/16 00:05:14;;;;;;;45.40;25.35;;;;;;;0.63;65.31;94399.91;5090237;28;20028;-41
2022/03/16 00:07:40;;;;;;;42.03;24.73;;;;;;;0.63;65.87;94397.94;5090463;28;20032;-40
2022/03/16 00:10:07;;;;;;;42.45;21.08;;;;;;;0.39;66.39;94402.59;5087246;28;20692;-41
2022/03/16 00:12:33;;;;;;;32.20;16.27;;;;;;;0.50;65.81;94404.81;5070258;28;20471;-41
2022/03/16 00:14:59;;;;;;;28.20;13.45;;;;;;;0.56;65.53;94394.84;5070321;28;20032;-41
2022/03/16 00:17:24;;;;;;;17.73;9.07;;;;;;;0.40;66.88;94398.69;5069912;28;20028;-41
2022/03/16 00:19:50;;;;;;;12.52;7.30;;;;;;;0.51;65.96;94392.75;5070949;28;20024;-41
2022/03/16 00:22:15;;;;;;;22.85;10.85;;;;;;;0.62;65.81;94398.41;5074307;28;20028;-41
2022/03/16 00:24:41;;;;;;;19.50;10.77;;;;;;;0.58;65.87;94398.59;5074024;28;20098;-41
2022/03/16 00:27:06;;;;;;;13.10;7.45;;;;;;;0.60;65.60;94400.84;5073952;28;20020;-41
2022/03/16 00:29:31;;;;;;;12.07;7.75;;;;;;;0.52;65.32;94397.69;5074115;28;20039;-41
2022/03/16 00:31:59;;;;;;;9.45;5.05;;;;;;;0.37;65.78;94396.88;5074249;28;20055;-41
2022/03/16 00:34:24;;;;;;;6.75;4.88;;;;;;;0.51;65.18;94387.31;5073776;28;20693;-41
2022/03/16 00:36:50;;;;;;;11.00;6.63;;;;;;;0.55;65.67;94377.78;5074055;28;20020;-41
2022/03/16 00:39:15;;;;;;;11.27;5.63;;;;;;;0.56;65.46;94381.97;5073698;28;20027;-41
2022/03/16 00:41:41;;;;;;;11.85;5.60;;;;;;;0.59;65.33;94378.34;5090103;28;20031;-41
2022/03/16 00:44:06;;;;;;;25.77;13.18;;;;;;;0.49;65.90;94376.16;5093435;28;20028;-41
2022/03/16 00:46:33;;;;;;;29.45;14.32;;;;;;;0.55;66.18;94375.06;5093881;28;20027;-41
2022/03/16 00:48:59;;;;;;;25.30;13.60;;;;;;;0.45;65.36;94351.13;5093739;28;20402;-41
2022/03/16 00:51:24;;;;;;;27.08;14.55;;;;;;;0.67;63.99;94365.19;5094043;28;20039;-41
2022/03/16 00:53:50;;;;;;;28.63;15.90;;;;;;;0.52;65.26;94364.38;5094050;28;20038;-41
2022/03/16 00:56:15;;;;;;;26.55;13.52;;;;;;;0.48;65.50;94359.09;5093493;28;20101;-41
2022/03/16 00:58:41;;;;;;;22.92;12.57;;;;;;;0.40;65.93;94363.38;5093998;28;20024;-41
2022/03/16 01:01:07;;;;;;;21.17;13.48;;;;;;;0.28;66.83;94355.44;5093868;28;20036;-41
2022/03/16 01:03:33;;;;;;;25.98;13.38;;;;;;;0.39;66.48;94359.13;5093757;28;20028;-41
2022/03/16 01:05:59;;;;;;;25.58;13.27;;;;;;;0.32;66.39;94354.06;5093458;28;20032;-41
2022/03/16 01:08:24;;;;;;;23.48;14.70;;;;;;;0.22;66.40;94306.41;5093679;28;20115;-41
2022/03/16 01:10:50;;;;;;;25.33;15.13;;;;;;;0.30;66.34;94317.72;5084535;28;20115;-41
2022/03/16 01:13:16;;;;;;;30.15;16.00;;;;;;;0.44;66.26;94304.19;5073391;28;20063;-41
2022/03/16 01:15:41;;;;;;;28.25;15.25;;;;;;;0.40;66.30;94298.19;5073176;28;20037;-41
2022/03/16 01:18:07;;;;;;;25.50;13.55;;;;;;;0.28;67.69;94298.41;5073270;28;20028;-41
2022/03/16 01:20:32;;;;;;;29.63;15.95;;;;;;;0.26;67.38;94301.56;5072988;28;20071;-41
2022/03/16 01:22:58;;;;;;;35.55;16.67;;;;;;;0.26;66.92;94295.41;5072879;28;20031;-41
2022/03/16 01:25:23;;;;;;;26.73;14.57;;;;;;;0.36;66.94;94296.84;5072845;28;20028;-41
2022/03/16 01:27:48;;;;;;;18.85;10.85;;;;;;;-0.11;67.83;94295.56;5073015;28;20032;-41
2022/03/16 01:30:14;;;;;;;19.05;9.88;;;;;;;0.12;67.12;94299.56;5072952;28;20052;-41
2022/03/16 01:32:40;;;;;;;12.10;7.30;;;;;;;-0.34;67.78;94274.56;5072692;28;20478;-41
2022/03/16 01:35:07;;;;;;;13.73;6.60;;;;;;;-0.02;67.23;94284.69;5073035;28;20070;-41
2022/03/16 01:37:32;;;;;;;36.00;16.58;;;;;;;-0.11;67.31;94282.00;5072952;28;20075;-41
2022/03/16 01:39:58;;;;;;;13.18;7.15;;;;;;;-0.11;68.14;94286.69;5076630;28;20056;-41
2022/03/16 01:42:23;;;;;;;10.00;6.93;;;;;;;0.05;67.57;94288.25;5113056;28;20104;-40
2022/03/16 01:44:51;;;;;;;9.52;6.22;;;;;;;0.14;67.64;94283.53;5107880;28;20032;-41
2022/03/16 01:47:19;;;;;;;11.23;5.95;;;;;;;-0.09;67.86;94284.28;5092968;28;20465;-40
2022/03/16 01:49:45;;;;;;;7.88;5.70;;;;;;;-0.07;67.12;94271.75;5092914;28;20103;-41
2022/03/16 01:52:11;;;;;;;50.42;20.38;;;;;;;0.13;66.45;94260.31;5092624;28;20027;-41
2022/03/16 01:54:39;;;;;;;42.50;17.77;;;;;;;0.08;67.36;94266.38;5074518;28;20023;-41
2022/03/16 01:57:05;;;;;;;23.02;9.63;;;;;;;-0.05;67.99;94272.03;5092583;28;20171;-41
2022/03/16 01:59:30;;;;;;;18.85;9.30;;;;;;;0.12;67.49;94261.53;5074531;28;20103;-41
2022/03/16 02:01:56;;;;;;;23.10;9.38;;;;;;;0.02;67.43;94256.63;5092736;28;20028;-41
2022/03/16 02:04:23;;;;;;;45.47;19.23;;;;;;;-0.03;68.05;94241.72;5073048;28;20537;-40
2022/03/16 02:06:49;;;;;;;42.03;19.50;;;;;;;0.03;68.45;94245.28;5072069;28;20024;-41
2022/03/16 02:09:14;;;;;;;20.08;9.75;;;;;;;0.12;68.30;94241.78;5072297;28;20021;-40
2022/03/16 02:11:40;;;;;;;11.85;6.93;;;;;;;0.12;68.27;94252.63;5072275;28;20029;-41
2022/03/16 02:14:05;;;;;;;12.40;5.85;;;;;;;0.28;67.68;94244.09;5072096;28;20097;-41
2022/03/16 02:16:34;;;;;;;6.50;5.35;;;;;;;0.32;67.85;94250.09;5071962;28;20107;-41
2022/03/16 02:19:00;;;;;;;9.32;6.05;;;;;;;0.39;67.28;94250.47;5071863;28;20094;-41
2022/03/16 02:21:30;;;;;;;11.82;7.78;;;;;;;0.53;67.20;94243.59;5072203;28;20058;-41
2022/03/16 02:23:56;;;;;;;18.23;9.68;;;;;;;0.61;66.57;94239.31;5072014;28;20032;-40
2022/03/16 02:26:25;;;;;;;15.88;9.70;;;;;;;0.13;67.86;94227.00;5071821;28;20107;-40
2022/03/16 02:28:51;;;;;;;33.80;16.17;;;;;;;0.33;68.07;94225.19;5071911;28;20024;-41
2022/03/16 02:31:17;;;;;;;42.78;20.15;;;;;;;0.44;68.32;94230.84;5071863;28;20509;-41
2022/03/16 02:33:43;;;;;;;20.30;11.70;;;;;;;0.27;68.76;94221.63;5071596;28;20028;-41
2022/03/16 02:36:09;;;;;;;18.70;9.07;;;;;;;0.32;68.95;94220.22;5071510;28;20115;-40
2022/03/16 02:38:35;;;;;;;18.83;11.85;;;;;;;0.23;69.05;94206.72;5071767;28;20016;-41
2022/03/16 02:41:01;;;;;;;34.55;16.75;;;;;;;0.49;68.59;94202.28;5081917;28;20031;-41
2022/03/16 02:43:27;;;;;;;57.08;25.77;;;;;;;0.33;68.92;94197.25;5090923;28;20085;-40
2022/03/16 02:45:53;;;;;;;30.33;13.55;;;;;;;0.31;69.29;94205.88;5091902;28;20040;-41
2022/03/16 02:48:19;;;;;;;19.30;9.90;;;;;;;0.39;69.30;94201.59;5091696;28;20036;-41
2022/03/16 02:50:44;;;;;;;21.83;9.65;;;;;;;0.36;69.19;94205.25;5091743;28;20035;-41
2022/03/16 02:53:09;;;;;;;25.15;12.95;;;;;;;0.45;69.57;94216.06;5091700;28;20024;-40
2022/03/16 02:55:35;;;;;;;40.97;16.92;;;;;;;0.48;68.49;94201.53;5091607;28;20437;-41
2022/03/16 02:58:00;;;;;;;26.25;14.40;;;;;;;0.63;67.91;94205.00;5091237;28;20497;-41
2022/03/16 03:00:26;;;;;;;27.35;14.10;;;;;;;0.40;68.58;94196.91;5091487;28;20032;-41
2022/03/16 03:02:53;;;;;;;31.17;15.65;;;;;;;0.29;68.74;94202.88;5084756;28;20174;-41
2022/03/16 03:05:19;;;;;;;25.27;12.20;;;;;;;0.27;69.38;94199.88;5070872;28;20073;-41
2022/03/16 03:07:44;;;;;;;18.40;10.05;;;;;;;0.29;69.92;94197.44;5071071;28;20024;-41
2022/03/16 03:10:10;;;;;;;12.80;7.85;;;;;;;0.02;69.62;94173.22;5071106;28;20078;-41
2022/03/16 03:12:35;;;;;;;12.52;7.00;;;;;;;0.25;69.53;94191.44;5071078;28;20093;-41
2022/03/16 03:15:03;;;;;;;8.38;6.15;;;;;;;0.32;69.06;94190.34;5071165;28;20028;-41
2022/03/16 03:17:28;;;;;;;10.23;6.10;;;;;;;0.32;69.25;94184.91;5070946;28;20025;-41
2022/03/16 03:19:53;;;;;;;14.18;7.38;;;;;;;0.26;69.03;94186.78;5070711;28;20047;-40
2022/03/16 03:22:19;;;;;;;13.23;6.28;;;;;;;0.26;69.12;94173.94;5070839;28;20028;-41
2022/03/16 03:24:44;;;;;;;13.70;7.00;;;;;;;0.16;69.57;94169.78;5070852;28;20424;-41
2022/03/16 03:27:10;;;;;;;11.70;7.55;;;;;;;0.22;69.41;94165.22;5070568;28;20028;-41
2022/03/16 03:29:36;;;;;;;12.07;7.63;;;;;;;0.35;69.68;94163.00;5070681;28;20031;-41
2022/03/16 03:32:02;;;;;;;11.90;8.07;;;;;;;0.32;69.38;94163.19;5070858;28;20417;-41
2022/03/16 03:34:27;;;;;;;18.08;8.57;;;;;;;0.43;69.41;94169.59;5052617;28;20021;-40
2022/03/16 03:36:53;;;;;;;33.47;17.75;;;;;;;0.46;69.22;94165.16;5070827;28;20017;-41
2022/03/16 03:39:18;;;;;;;46.70;22.52;;;;;;;0.48;68.86;94158.06;5070453;28;20016;-41
2022/03/16 03:41:44;;;;;;;34.22;19.63;;;;;;;0.64;68.22;94173.16;5103869;28;20031;-41
2022/03/16 03:44:09;;;;;;;46.75;20.58;;;;;;;0.51;68.34;94140.84;5110969;28;20012;-41
2022/03/16 03:46:35;;;;;;;32.70;18.05;;;;;;;0.31;68.98;94170.59;5110867;28;20028;-41
2022/03/16 03:49:00;;;;;;;25.60;14.68;;;;;;;0.49;68.99;94172.41;5111085;28;20081;-41
2022/03/16 03:51:26;;;;;;;20.70;11.90;;;;;;;0.00;70.15;94165.53;5111092;28;20043;-41
2022/03/16 03:53:51;;;;;;;27.13;16.02;;;;;;;-0.08;70.32;94169.06;5110584;28;20416;-41
2022/03/16 03:56:17;;;;;;;38.63;20.20;;;;;;;-0.06;70.66;94153.06;5110424;28;20020;-41
2022/03/16 03:58:42;;;;;;;27.27;15.00;;;;;;;-0.07;70.43;94162.44;5110699;28;20039;-41
2022/03/16 04:01:08;;;;;;;41.40;22.23;;;;;;;-0.17;70.23;94141.97;5110918;28;20020;-41
2022/03/16 04:03:33;;;;;;;35.83;20.08;;;;;;;0.10;70.81;94168.19;5098592;28;20539;-41
2022/03/16 04:05:59;;;;;;;34.03;21.48;;;;;;;0.33;70.36;94160.00;5090517;28;20481;-41
2022/03/16 04:08:25;;;;;;;34.42;19.48;;;;;;;0.17;69.90;94156.97;5090464;28;20474;-41
2022/03/16 04:10:51;;;;;;;32.85;16.83;;;;;;;0.29;69.71;94162.16;5090480;28;20026;-41
2022/03/16 04:13:16;;;;;;;25.92;16.63;;;;;;;0.35;69.63;94156.81;5090435;28;20077;-41
2022/03/16 04:15:42;;;;;;;34.03;20.45;;;;;;;0.42;70.04;94157.22;5090201;28;20020;-41
2022/03/16 04:18:07;;;;;;;46.95;25.92;;;;;;;0.53;69.28;94151.97;5090415;28;20024;-41
2022/03/16 04:20:32;;;;;;;50.88;28.88;;;;;;;0.59;68.73;94152.06;5090179;28;20024;-41
2022/03/16 04:22:58;;;;;;;65.70;36.67;;;;;;;0.63;68.99;94160.78;5090046;28;20020;-41
2022/03/16 04:25:23;;;;;;;66.10;33.58;;;;;;;0.51;68.92;94154.41;5090074;28;20027;-41
2022/03/16 04:27:49;;;;;;;45.53;24.63;;;;;;;0.49;69.74;94154.13;5090239;28;20107;-41
2022/03/16 04:30:14;;;;;;;34.78;20.45;;;;;;;0.56;70.04;94145.59;5090310;28;20410;-40
2022/03/16 04:32:40;;;;;;;37.35;21.15;;;;;;;0.57;69.66;94144.41;5090393;28;20374;-41
2022/03/16 04:35:06;;;;;;;63.55;25.23;;;;;;;0.54;70.57;94141.88;5089938;28;20517;-41
2022/03/16 04:37:32;;;;;;;39.22;21.35;;;;;;;0.55;70.37;94140.63;5090044;28;20069;-41
2022/03/16 04:39:58;;;;;;;36.38;21.95;;;;;;;0.65;69.50;94131.19;5089590;28;20555;-40
2022/03/16 04:42:23;;;;;;;38.83;21.83;;;;;;;0.69;69.28;94142.63;5090233;28;20107;-40
2022/03/16 04:44:49;;;;;;;40.17;22.75;;;;;;;0.66;69.43;94138.88;5090217;28;20027;-41
2022/03/16 04:47:14;;;;;;;42.72;22.20;;;;;;;0.82;68.44;94134.94;5090216;28;20059;-41
2022/03/16 04:49:40;;;;;;;41.33;22.33;;;;;;;0.92;68.39;94133.63;5090119;28;20024;-41
2022/03/16 04:52:05;;;;;;;42.88;22.60;;;;;;;0.82;68.70;94132.22;5089837;28;20490;-41
2022/03/16 04:54:31;;;;;;;38.80;22.33;;;;;;;0.61;69.15;94130.63;5090057;28;20028;-41
2022/03/16 04:56:56;;;;;;;39.53;21.08;;;;;;;0.70;69.15;94128.56;5089799;28;20051;-40
2022/03/16 04:59:22;;;;;;;48.60;22.58;;;;;;;0.90;68.67;94127.91;5090117;28;20059;-41
2022/03/16 05:01:47;;;;;;;38.85;23.38;;;;;;;0.93;68.43;94118.06;5090008;28;20051;-40
2022/03/16 05:04:13;;;;;;;39.78;23.63;;;;;;;0.99;67.92;94110.75;5089652;28;20698;-41
2022/03/16 05:06:39;;;;;;;43.72;23.92;;;;;;;0.81;68.98;94111.69;5073724;28;20089;-41
2022/03/16 05:09:04;;;;;;;44.88;23.70;;;;;;;0.89;68.68;94110.09;5093755;28;20028;-41
2022/03/16 05:11:30;;;;;;;48.28;24.20;;;;;;;0.85;68.68;94101.38;5078874;28;20418;-41
2022/03/16 05:13:56;;;;;;;41.60;21.95;;;;;;;0.84;69.22;94099.13;5073369;28;20453;-41
2022/03/16 05:16:22;;;;;;;38.63;20.77;;;;;;;0.86;68.95;94096.69;5073034;28;20423;-40
2022/03/16 05:18:47;;;;;;;30.80;17.67;;;;;;;0.64;69.42;94076.09;5073200;28;20085;-40
2022/03/16 05:21:13;;;;;;;29.88;17.77;;;;;;;0.88;68.69;94100.44;5073314;28;20020;-41
2022/03/16 05:23:40;;;;;;;39.47;19.85;;;;;;;0.95;68.23;94096.59;5073157;28;20409;-41
2022/03/16 05:26:06;;;;;;;29.60;16.55;;;;;;;0.88;68.96;94091.53;5073134;28;20166;-40
2022/03/16 05:28:31;;;;;;;26.80;17.38;;;;;;;0.89;68.77;94093.78;5073056;28;20047;-41
2022/03/16 05:30:57;;;;;;;42.50;21.00;;;;;;;0.91;69.81;94091.34;5073030;28;20402;-41
2022/03/16 05:33:23;;;;;;;54.65;25.88;;;;;;;0.87;69.10;94068.31;5076387;28;20806;-41
2022/03/16 05:35:49;;;;;;;60.85;30.60;;;;;;;1.17;68.46;94094.94;5093159;28;20046;-41
2022/03/16 05:38:14;;;;;;;37.55;21.38;;;;;;;1.16;68.31;94088.03;5093320;28;20481;-40
2022/03/16 05:40:41;;;;;;;90.22;40.55;;;;;;;1.00;68.31;94093.19;5092605;28;20504;-41
2022/03/16 05:43:06;;;;;;;88.57;42.90;;;;;;;1.10;68.21;94094.59;5093097;28;20027;-40
2022/03/16 05:45:32;;;;;;;64.25;32.25;;;;;;;1.07;69.00;94092.81;5092779;28;20511;-41
2022/03/16 05:58:44;;;;;;;31.77;20.00;;;;;;;1.82;66.68;94071.81;5128427;27;20658;-40
2022/03/16 06:01:10;;;;;;;69.60;30.27;;;;;;;1.80;67.00;94078.97;5128695;27;20380;-40
2022/03/16 06:03:35;;;;;;;63.53;35.33;;;;;;;1.60;67.50;94077.00;5128570;27;20076;-40
2022/03/16 06:06:00;;;;;;;96.43;52.38;;;;;;;1.57;68.55;94072.50;5128580;27;20068;-40
2022/03/16 06:08:26;;;;;;;130.57;75.07;;;;;;;1.58;67.75;94067.81;5128283;27;20492;-40
2022/03/16 06:10:51;;;;;;;146.85;76.00;;;;;;;1.40;68.79;94064.13;5118918;27;20020;-41
2022/03/16 06:13:17;;;;;;;130.48;72.25;;;;;;;1.57;67.45;94066.31;5107634;28;20047;-40
2022/03/16 06:15:43;;;;;;;130.32;67.60;;;;;;;1.70;67.26;94067.47;5107846;28;20020;-40
2022/03/16 06:18:09;;;;;;;154.75;75.63;;;;;;;1.46;67.17;94061.47;5107516;28;20024;-40
2022/03/16 06:20:36;;;;;;;116.40;65.10;;;;;;;1.11;68.50;94056.03;5109773;28;20027;-41
2022/03/16 06:23:04;;;;;;;123.07;64.13;;;;;;;1.02;69.36;94050.00;5128286;27;20095;-40
2022/03/16 06:25:30;;;;;;;122.82;68.88;;;;;;;1.24;69.04;94058.44;5128200;27;20023;-40
2022/03/16 06:27:55;;;;;;;125.60;67.40;;;;;;;1.34;69.15;94059.84;5127756;27;20627;-40
2022/03/16 06:30:21;;;;;;;151.40;80.40;;;;;;;1.44;68.73;94059.22;5118339;27;20125;-40
2022/03/16 06:32:47;;;;;;;199.50;96.13;;;;;;;1.56;68.97;94053.94;5107250;28;20046;-41
2022/03/16 06:35:14;;;;;;;176.20;83.90;;;;;;;1.66;67.77;94055.28;5107225;28;20019;-40
2022/03/16 06:37:39;;;;;;;169.73;84.32;;;;;;;1.50;68.23;94035.56;5107439;28;20023;-40
2022/03/16 06:40:05;;;;;;;79.68;46.47;;;;;;;1.48;67.69;94039.97;5110183;28;20636;-40
2022/03/16 06:42:31;;;;;;;95.45;51.25;;;;;;;1.59;67.43;94029.22;5127872;27;20023;-40
2022/03/16 06:44:57;;;;;;;101.22;53.88;;;;;;;1.83;67.14;94045.34;5127815;27;20102;-40
2022/03/16 06:47:22;;;;;;;122.20;55.83;;;;;;;1.76;67.35;94043.03;5127726;27;20373;-40
2022/03/16 06:49:48;;;;;;;116.20;63.38;;;;;;;1.82;67.09;94044.59;5127364;27;20026;-40
2022/03/16 06:52:13;;;;;;;128.93;65.18;;;;;;;1.85;67.36;94037.44;5127720;27;20015;-40
2022/03/16 06:54:38;;;;;;;129.25;66.78;;;;;;;2.03;65.76;94037.16;5126175;27;20513;-40
2022/03/16 06:57:04;;;;;;;151.27;85.78;;;;;;;2.09;65.34;94025.09;5106669;28;20066;-41
2022/03/16 06:59:30;;;;;;;140.35;73.43;;;;;;;2.06;65.10;94039.66;5094313;28;20028;-40
2022/03/16 07:01:55;;;;;;;139.13;75.20;;;;;;;2.18;65.82;94043.25;5093431;28;20052;-40
2022/03/16 07:04:21;;;;;;;133.80;72.55;;;;;;;2.28;66.19;94047.31;5093164;28;20032;-40
2022/03/16 07:06:46;;;;;;;146.38;80.05;;;;;;;2.35;66.61;94038.72;5091786;28;20089;-40
2022/03/16 07:09:11;;;;;;;135.15;77.03;;;;;;;2.44;65.54;94041.28;5092973;28;20035;-40
2022/03/16 07:11:37;;;;;;;135.73;76.13;;;;;;;2.54;64.77;94037.16;5108802;28;20034;-40
2022/03/16 07:16:46;;;;;;;142.85;78.65;;;;;;;2.76;64.38;94037.34;5113539;28;20079;-40
2022/03/16 07:19:12;;;;;;;134.40;73.75;;;;;;;2.77;64.39;94027.19;5113532;28;20031;-40
2022/03/16 07:21:38;;;;;;;126.22;74.43;;;;;;;3.03;63.34;94041.53;5113448;28;20015;-40
2022/03/16 07:24:05;;;;;;;134.15;72.70;;;;;;;3.03;63.67;94019.69;5113476;28;20023;-41
2022/03/16 07:26:30;;;;;;;157.13;88.47;;;;;;;2.78;63.56;94023.97;5113214;28;20474;-40
2022/03/16 07:28:56;;;;;;;97.38;55.38;;;;;;;2.74;64.78;94025.41;5113047;28;20035;-41
2022/03/16 07:31:22;;;;;;;68.38;38.50;;;;;;;2.77;62.70;94019.72;5112935;28;20040;-40
2022/03/16 07:33:47;;;;;;;52.35;28.77;;;;;;;2.99;62.76;94019.91;5113152;28;20100;-40
2022/03/16 07:36:13;;;;;;;49.05;27.58;;;;;;;3.14;62.29;94017.00;5112901;28;20042;-40
2022/03/16 07:38:38;;;;;;;36.85;18.58;;;;;;;3.30;62.45;94016.38;5113060;28;20027;-41
2022/03/16 07:41:05;;;;;;;38.25;20.42;;;;;;;3.46;62.89;94017.69;5112845;28;20442;-41
2022/03/16 07:43:31;;;;;;;51.33;27.63;;;;;;;3.62;62.94;94014.28;5113060;28;20111;-40
2022/03/16 07:45:56;;;;;;;55.08;29.92;;;;;;;3.69;63.62;94005.63;5112523;28;20462;-40
2022/03/16 07:48:22;;;;;;;56.20;29.20;;;;;;;3.64;63.23;93992.69;5112098;28;20436;-40
2022/03/16 07:50:48;;;;;;;64.38;32.30;;;;;;;3.80;63.78;94006.44;5112527;28;20494;-41
2022/03/16 07:53:13;;;;;;;78.35;37.42;;;;;;;3.90;62.03;94001.47;5112921;28;20031;-42
2022/03/16 07:55:39;;;;;;;70.07;36.67;;;;;;;4.09;62.22;94013.47;5102915;28;20483;-41
2022/03/16 07:58:05;;;;;;;62.80;33.42;;;;;;;4.18;61.99;94018.69;5091937;28;20036;-41
2022/03/16 08:00:31;;;;;;;59.83;32.13;;;;;;;4.11;61.40;94013.72;5092326;28;20081;-41
2022/03/16 08:02:59;;;;;;;57.45;29.98;;;;;;;3.78;62.09;94021.81;5091164;28;20099;-40
2022/03/16 08:05:24;;;;;;;64.50;34.63;;;;;;;3.82;60.88;94017.63;5092339;28;20020;-41
2022/03/16 08:07:50;;;;;;;60.70;34.08;;;;;;;3.81;61.49;94013.38;5092149;28;20580;-41
2022/03/16 08:10:15;;;;;;;71.13;35.10;;;;;;;3.87;61.69;94010.69;5095522;28;20051;-41
2022/03/16 08:12:41;;;;;;;56.05;28.65;;;;;;;4.10;60.85;94020.41;5112184;28;20502;-41
2022/03/16 08:15:07;;;;;;;44.30;21.67;;;;;;;4.16;60.56;94018.44;5112428;28;20024;-41
2022/03/16 08:17:33;;;;;;;30.42;15.93;;;;;;;4.17;60.73;94019.19;5112104;28;20015;-41
2022/03/16 08:19:58;;;;;;;24.27;13.40;;;;;;;4.22;60.23;94030.13;5111999;28;20098;-41
2022/03/16 08:22:36;;;;;;;14.35;9.43;;;;;;;4.22;60.44;94030.13;5112301;28;20108;-41
2022/03/16 08:25:04;;;;;;;20.90;10.13;;;;;;;4.27;60.46;94021.22;5111992;28;20016;-41
2022/03/16 08:27:30;;;;;;;22.20;11.40;;;;;;;4.36;59.46;94026.44;5111688;28;20114;-41
2022/03/16 08:29:56;;;;;;;22.20;11.40;;;;;;;4.36;59.66;94023.72;5111851;28;20026;-41
2022/03/16 08:32:22;;;;;;;25.90;11.32;;;;;;;4.39;59.52;94020.00;5111773;27;20038;-41
2022/03/16 08:34:48;;;;;;;20.67;10.77;;;;;;;4.25;59.58;94017.47;5111705;28;20047;-41
2022/03/16 08:37:14;;;;;;;31.05;14.30;;;;;;;4.27;59.16;94007.53;5111744;28;20030;-41
2022/03/16 08:39:40;;;;;;;26.42;14.18;;;;;;;4.33;60.03;94013.75;5111609;28;20021;-41
2022/03/16 08:42:07;;;;;;;41.00;21.33;;;;;;;4.44;59.49;94010.31;5111605;28;20080;-41
2022/03/16 08:44:33;;;;;;;35.03;20.30;;;;;;;4.48;60.00;94000.59;5111607;28;20492;-41
2022/03/16 08:46:58;;;;;;;32.60;20.80;;;;;;;4.60;60.07;94001.38;5111740;28;20731;-41
2022/03/16 08:49:24;;;;;;;39.72;20.63;;;;;;;4.59;59.08;93981.47;5111809;28;20176;-41
2022/03/16 08:51:50;;;;;;;32.00;19.10;;;;;;;4.84;59.39;93990.69;5111335;28;20516;-41
2022/03/16 08:54:16;;;;;;;50.83;23.17;;;;;;;4.99;58.96;93990.41;5111705;28;20023;-41
2022/03/16 08:56:45;;;;;;;38.63;22.58;;;;;;;5.06;58.43;93990.66;5111088;27;20532;-41
2022/03/16 08:59:11;;;;;;;42.33;20.92;;;;;;;5.16;58.15;94002.06;5111296;28;20488;-41
2022/03/16 09:01:37;;;;;;;36.58;19.98;;;;;;;5.19;59.01;93996.38;5111319;28;20031;-41
2022/03/16 09:04:03;;;;;;;47.53;24.73;;;;;;;5.34;57.42;93990.59;5111138;28;20020;-41
2022/03/16 09:06:31;;;;;;;41.67;27.48;;;;;;;5.62;57.86;93991.25;5111147;28;20084;-41
2022/03/16 09:08:57;;;;;;;61.75;27.42;;;;;;;5.94;57.09;93986.16;5111098;28;20020;-41
2022/03/16 09:11:23;;;;;;;48.35;28.33;;;;;;;6.27;55.78;93986.00;5097197;28;20028;-41
2022/03/16 09:13:48;;;;;;;49.40;30.25;;;;;;;6.59;54.22;93984.28;5091020;28;20020;-41
2022/03/16 09:16:14;;;;;;;44.17;26.30;;;;;;;6.72;53.37;93953.50;5090970;28;20073;-41
2022/03/16 09:18:40;;;;;;;41.47;26.13;;;;;;;7.02;53.06;93956.97;5090570;28;20026;-41
2022/03/16 09:21:06;;;;;;;39.03;23.88;;;;;;;7.26;51.35;93970.72;5090638;28;20024;-41
2022/03/16 09:23:32;;;;;;;67.57;37.50;;;;;;;7.36;50.76;93968.41;5105706;28;20023;-41
2022/03/16 09:26:01;;;;;;;84.40;41.58;;;;;;;7.34;48.61;93949.66;5111178;28;20023;-41
2022/03/16 09:28:27;;;;;;;;;;;;;;;7.49;48.84;93969.22;5111650;28;20031;-41
2022/03/16 09:30:52;;;;;;;213.23;91.25;;;;;;;7.50;49.76;93959.75;5110829;28;20393;-41
2022/03/16 09:33:18;;;;;;;251.85;117.80;;;;;;;7.57;48.68;93967.41;5110771;28;20031;-42
2022/03/16 09:35:44;;;;;;;179.27;82.30;;;;;;;7.69;48.29;93967.28;5110736;28;20031;-41
2022/03/16 09:38:12;;;;;;;83.00;39.65;;;;;;;7.81;47.83;93965.88;5110681;28;20023;-41
2022/03/16 09:40:38;;;;;;;46.60;23.58;;;;;;;7.94;46.30;93976.97;5103028;28;20028;-41
2022/03/16 09:43:09;;;;;;;38.47;21.27;;;;;;;8.13;45.38;93966.72;5090683;28;20458;-41
2022/03/16 09:45:56;;;;;;;27.65;14.27;;;;;;;8.16;43.45;93962.94;5090596;28;20028;-41
2022/03/16 09:48:23;;;;;;;36.58;18.50;;;;;;;8.22;42.70;93956.09;5090551;28;20408;-41
2022/03/16 09:50:51;;;;;;;20.80;12.25;;;;;;;8.05;42.71;93955.59;5090190;28;20024;-41
2022/03/16 09:53:16;;;;;;;24.38;14.73;;;;;;;8.35;43.01;93971.94;5090558;28;20052;-41
2022/03/16 09:55:42;;;;;;;22.73;12.98;;;;;;;8.50;42.48;93969.50;5100359;28;20521;-41
2022/03/16 09:58:07;;;;;;;36.28;15.38;;;;;;;8.61;44.03;93969.31;5110350;28;20040;-41
2022/03/16 10:00:33;;;;;;;72.82;27.50;;;;;;;8.72;43.03;93965.66;5110827;28;20142;-41
2022/03/16 10:03:02;;;;;;;76.20;33.72;;;;;;;8.82;41.93;93964.72;5110746;28;20042;-41
2022/03/16 10:05:28;;;;;;;52.03;22.38;;;;;;;8.85;39.69;93954.69;5110457;28;20504;-41
2022/03/16 10:07:54;;;;;;;13.50;9.80;;;;;;;8.58;39.74;93956.59;5110690;28;20066;-41
2022/03/16 10:13:21;;;;;;;123.88;48.42;;;;;;;8.58;40.73;93951.09;5110750;28;20557;-41
2022/03/16 10:15:48;;;;;;;59.03;26.13;;;;;;;8.56;41.73;93955.63;5110329;28;20038;-41
2022/03/16 10:18:19;;;;;;;39.60;17.20;;;;;;;8.51;43.38;93951.69;5108100;28;20027;-41
2022/03/16 10:20:45;;;;;;;24.95;11.60;;;;;;;8.46;42.08;93944.28;5090022;28;20504;-41
2022/03/16 10:23:20;;;;;;;24.67;12.35;;;;;;;8.27;40.18;93941.53;5090259;28;20024;-41
2022/03/16 10:25:53;;;;;;;26.38;14.07;;;;;;;8.27;43.46;93947.03;5090068;28;20034;-42
2022/03/16 10:28:23;;;;;;;22.00;13.23;;;;;;;8.25;43.62;93951.56;5090190;28;20051;-41
2022/03/16 10:31:02;;;;;;;23.88;14.77;;;;;;;8.22;44.42;93952.59;5089983;28;20099;-41
2022/03/16 10:34:06;;;;;;;29.10;13.50;;;;;;;8.19;45.17;93948.13;5091021;28;20056;-41
2022/03/16 10:36:37;;;;;;;39.20;18.83;;;;;;;8.11;44.46;93942.50;5084728;28;20060;-41
2022/03/16 10:39:03;;;;;;;43.20;19.63;;;;;;;8.07;45.57;93935.81;5093673;28;20035;-41
2022/03/16 10:47:12;;;;;;;39.47;21.75;;;;;;;7.81;43.66;93946.66;5114059;28;20088;-41
2022/03/16 10:49:38;;;;;;;36.67;19.08;;;;;;;7.86;44.33;93938.31;5113785;28;20027;-41
2022/03/16 10:52:07;;;;;;;35.63;17.08;;;;;;;7.96;44.35;93946.94;5114027;28;20541;-41
2022/03/16 10:54:33;;;;;;;23.35;14.20;;;;;;;7.99;45.19;93935.66;5113545;28;20480;-41
2022/03/16 10:57:01;;;;;;;22.42;13.77;;;;;;;8.01;42.75;93937.91;5093019;28;20044;-41
2022/03/16 10:59:29;;;;;;;33.25;16.48;;;;;;;8.10;44.88;93943.03;5093523;28;20024;-41
2022/03/16 11:02:06;;;;;;;30.13;16.42;;;;;;;8.17;45.27;93926.66;5093507;28;20032;-41
2022/03/16 11:04:34;;;;;;;31.58;17.55;;;;;;;8.28;44.09;93934.78;5093448;28;20118;-42
2022/03/16 11:07:01;;;;;;;20.98;13.07;;;;;;;8.30;42.50;93926.75;5093029;28;20532;-41
2022/03/16 11:09:27;;;;;;;18.23;11.55;;;;;;;8.43;42.44;93933.56;5093032;28;20020;-41
2022/03/16 11:14:37;;;;;;;23.38;12.98;;;;;;;8.62;42.95;93935.00;5112590;28;20034;-41
2022/03/16 11:17:03;;;;;;;18.95;10.80;;;;;;;8.61;41.56;93950.06;5113544;28;20016;-42
2022/03/16 11:19:29;;;;;;;19.40;11.88;;;;;;;8.70;41.85;93951.69;5113584;28;20488;-41
2022/03/16 11:22:00;;;;;;;25.50;13.52;;;;;;;8.70;41.25;93952.44;5112039;28;20030;-41
2022/03/16 11:24:26;;;;;;;22.63;13.15;;;;;;;8.72;41.04;93955.41;5113480;28;20055;-41
2022/03/16 11:27:29;;;;;;;18.65;10.60;;;;;;;8.69;41.69;93955.69;5112128;28;20110;-41
2022/03/16 11:30:06;;;;;;;21.20;12.13;;;;;;;8.52;40.95;93946.94;5113062;28;20077;-41
2022/03/16 11:32:39;;;;;;;28.98;15.18;;;;;;;8.44;41.21;93949.56;5112984;28;20500;-41
2022/03/16 11:35:13;;;;;;;21.02;11.95;;;;;;;8.28;40.88;93942.28;5112893;28;20030;-41
2022/03/16 11:37:43;;;;;;;28.45;12.52;;;;;;;8.11;41.97;93944.50;5113251;28;20461;-41
2022/03/16 11:40:11;;;;;;;18.65;10.73;;;;;;;8.02;42.16;93939.38;5112483;28;20055;-41
2022/03/16 11:43:08;;;;;;;30.73;18.77;;;;;;;7.83;42.67;93939.38;5113171;28;20501;-41
2022/03/16 11:45:37;;;;;;;20.35;11.30;;;;;;;7.60;45.50;93944.38;5109199;28;20035;-41
2022/03/16 11:48:21;;;;;;;;;;;;;;;7.55;47.42;93931.47;5113211;28;20156;-41